Time;durP1;ratioP1;P1;durP2;ratioP2;P2;SDS_P1;SDS_P2;PMS_P1;PMS_P2;Temp;Humidity;BMP_temperature;BMP_pressure;BME280_temperature;BME280_humidity;BME280_pressure;Samples;Min_cycle;Max_cycle;Signal;HPM_P1;HPM_P2
2022/01/14 00:02:14;;;;;;;51.28;12.75;;;;;;;4.56;99.65;103718.69;5055801;28;20029;-43
2022/01/14 00:04:40;;;;;;;42.38;12.88;;;;;;;4.55;98.60;103711.09;5055475;28;20533;-44
2022/01/14 00:07:06;;;;;;;46.25;12.75;;;;;;;4.55;98.93;103723.91;5054883;28;20025;-42
2022/01/14 00:09:33;;;;;;;42.33;13.18;;;;;;;4.63;99.29;103719.19;5054709;28;20033;-43
2022/01/14 00:12:00;;;;;;;44.53;13.35;;;;;;;4.62;99.23;103723.50;5055392;28;20016;-46
2022/01/14 00:16:54;;;;;;;65.25;13.32;;;;;;;4.50;99.36;103727.50;5055332;28;20041;-40
2022/01/14 00:19:20;;;;;;;39.72;13.43;;;;;;;4.53;99.65;103711.16;5055451;28;20070;-40
2022/01/14 00:21:45;;;;;;;46.42;13.80;;;;;;;4.53;99.08;103706.03;5055215;28;20113;-41
2022/01/14 00:32:28;;;;;;;33.58;13.18;;;;;;;4.54;99.69;103705.13;5054927;28;20483;-48
2022/01/14 00:34:54;;;;;;;75.80;14.88;;;;;;;4.44;99.61;103706.50;5054948;28;20095;-41
2022/01/14 00:37:19;;;;;;;61.42;14.80;;;;;;;4.42;99.79;103713.41;5055122;28;20586;-40
2022/01/14 00:39:46;;;;;;;45.33;13.88;;;;;;;4.46;99.30;103707.22;5055411;28;20025;-41
2022/01/14 00:42:12;;;;;;;55.55;13.45;;;;;;;4.49;99.33;103700.25;5055283;28;20380;-42
2022/01/14 00:44:37;;;;;;;38.85;13.48;;;;;;;4.52;98.56;103699.25;5054985;28;20029;-40
2022/01/14 00:47:04;;;;;;;50.47;14.77;;;;;;;4.45;98.39;103693.59;5054938;28;20027;-42
2022/01/14 00:49:30;;;;;;;41.13;13.85;;;;;;;4.48;98.98;103706.25;5054907;28;20086;-39
2022/01/14 00:51:56;;;;;;;47.17;14.20;;;;;;;4.51;99.10;103693.28;5054924;28;20029;-40
2022/01/14 00:54:21;;;;;;;43.10;14.68;;;;;;;4.48;98.97;103690.06;5055144;28;20024;-41
2022/01/14 00:57:01;;;;;;;38.70;14.40;;;;;;;4.65;99.09;103687.47;5054898;28;20025;-43
2022/01/14 00:59:27;;;;;;;35.92;13.70;;;;;;;4.60;98.54;103674.06;5055029;28;20025;-40
2022/01/14 01:01:56;;;;;;;41.25;13.65;;;;;;;4.60;98.40;103686.06;5054684;28;20434;-43
2022/01/14 01:04:35;;;;;;;46.97;13.93;;;;;;;4.60;98.54;103697.13;5054848;28;20074;-41
2022/01/14 01:07:02;;;;;;;47.35;13.55;;;;;;;4.57;98.61;103691.34;5053284;28;20108;-43
2022/01/14 01:09:29;;;;;;;41.17;13.90;;;;;;;4.60;98.05;103694.56;5054707;28;20460;-42
2022/01/14 01:14:39;;;;;;;46.13;14.73;;;;;;;4.72;98.53;103672.66;5054537;28;20033;-39
2022/01/14 01:17:05;;;;;;;38.38;13.80;;;;;;;4.73;97.70;103676.88;5055098;28;20032;-44
2022/01/14 01:19:31;;;;;;;45.83;13.88;;;;;;;4.69;97.88;103665.94;5054262;28;20021;-41
2022/01/14 01:21:56;;;;;;;40.80;14.30;;;;;;;4.80;97.96;103664.56;5054270;28;20096;-42
2022/01/14 01:24:22;;;;;;;37.45;13.68;;;;;;;4.66;97.65;103643.06;5054258;28;20431;-42
2022/01/14 01:26:49;;;;;;;40.65;14.30;;;;;;;4.76;97.61;103658.78;5054408;28;20017;-41
2022/01/14 01:29:33;;;;;;;41.28;13.60;;;;;;;4.84;97.65;103659.22;5054279;28;20021;-38
2022/01/14 01:31:58;;;;;;;;;;;;;;;4.66;97.27;103660.13;5054459;28;20031;-41
2022/01/14 01:34:25;;;;;;;40.97;12.93;;;;;;;4.56;98.18;103654.66;5052846;28;19908;-40
2022/01/14 01:36:53;;;;;;;59.70;14.68;;;;;;;4.56;98.09;103658.94;5053580;28;20283;-40
2022/01/14 01:39:21;;;;;;;48.92;14.00;;;;;;;4.54;98.65;103661.56;5052257;28;20057;-41
2022/01/14 01:41:49;;;;;;;46.70;14.43;;;;;;;4.58;99.23;103657.97;5053854;28;20020;-40
2022/01/14 01:44:17;;;;;;;54.08;14.25;;;;;;;4.63;98.12;103661.13;5053833;28;20036;-41
2022/01/14 01:46:46;;;;;;;45.03;13.80;;;;;;;4.58;98.26;103652.84;5053735;28;20029;-40
2022/01/14 01:49:13;;;;;;;44.20;14.30;;;;;;;4.61;98.50;103652.69;5053858;28;20495;-42
2022/01/14 01:51:39;;;;;;;51.33;14.30;;;;;;;4.62;98.91;103662.03;5053671;28;20378;-42
2022/01/14 01:54:05;;;;;;;41.92;13.77;;;;;;;4.67;98.55;103649.81;5053609;28;20107;-40
2022/01/14 01:56:31;;;;;;;52.05;15.00;;;;;;;4.63;98.45;103647.47;5053471;28;20109;-42
2022/01/14 01:58:57;;;;;;;45.05;13.80;;;;;;;4.60;98.66;103655.31;5053523;28;20025;-40
2022/01/14 02:01:24;;;;;;;46.40;13.57;;;;;;;4.51;98.72;103654.88;5054260;28;20032;-40
2022/01/14 02:03:52;;;;;;;43.92;14.20;;;;;;;4.54;98.47;103656.44;5053690;28;20376;-40
2022/01/14 02:06:19;;;;;;;48.53;13.13;;;;;;;4.43;98.29;103648.47;5053484;28;20025;-41
2022/01/14 02:08:44;;;;;;;35.25;12.23;;;;;;;4.44;98.92;103650.16;5052124;28;20021;-41
2022/01/14 02:11:09;;;;;;;38.72;13.38;;;;;;;4.40;99.35;103644.38;5053607;28;20035;-41
2022/01/14 02:13:35;;;;;;;49.45;13.88;;;;;;;4.34;99.22;103659.19;5053534;28;20031;-40
2022/01/14 02:18:34;;;;;;;47.47;13.88;;;;;;;4.34;99.28;103659.19;5053635;28;20039;-42
2022/01/14 02:23:52;;;;;;;36.97;13.15;;;;;;;4.28;99.96;103660.31;5054006;28;20372;-41
2022/01/14 02:26:19;;;;;;;39.00;13.73;;;;;;;4.28;99.51;103655.19;5053166;28;20028;-42
2022/01/14 02:28:49;;;;;;;35.55;13.35;;;;;;;4.34;99.50;103649.75;5051887;28;20029;-40
2022/01/14 02:31:16;;;;;;;46.67;13.57;;;;;;;4.40;99.14;103640.94;5053437;28;20415;-43
2022/01/14 02:33:42;;;;;;;44.60;14.27;;;;;;;4.34;99.27;103643.81;5053162;28;20517;-39
2022/01/14 02:36:08;;;;;;;33.67;13.95;;;;;;;4.41;99.32;103643.44;5052911;28;20028;-40
2022/01/14 02:38:33;;;;;;;48.78;13.20;;;;;;;4.31;98.88;103652.47;5053125;28;20029;-41
2022/01/14 02:40:59;;;;;;;55.40;13.25;;;;;;;4.13;99.49;103654.19;5052955;28;20029;-41
2022/01/14 02:43:26;;;;;;;50.78;13.45;;;;;;;4.30;100.00;103651.66;5053047;28;20027;-41
2022/01/14 02:45:55;;;;;;;40.20;13.70;;;;;;;4.36;99.39;103652.25;5053320;28;20387;-41
2022/01/14 02:48:26;;;;;;;49.03;14.23;;;;;;;4.29;98.59;103641.50;5053261;28;20052;-39
2022/01/14 02:51:00;;;;;;;32.92;12.82;;;;;;;4.33;99.46;103647.28;5057659;28;20032;-39
2022/01/14 02:56:10;;;;;;;42.40;13.27;;;;;;;4.36;99.37;103626.66;5057226;28;20033;-40
2022/01/14 02:58:37;;;;;;;42.63;13.77;;;;;;;4.36;98.69;103621.53;5057096;28;20167;-39
2022/01/14 03:01:10;;;;;;;53.17;13.48;;;;;;;4.24;98.33;103633.22;5056944;28;20494;-40
2022/01/14 03:03:37;;;;;;;79.15;13.80;;;;;;;4.11;98.89;103601.44;5056839;28;20396;-46
2022/01/14 03:06:03;;;;;;;74.35;13.13;;;;;;;4.29;98.98;103626.97;5057087;28;20063;-40
2022/01/14 03:08:30;;;;;;;42.35;12.77;;;;;;;4.30;98.54;103627.78;5056833;28;20035;-39
2022/01/14 03:11:00;;;;;;;57.15;14.52;;;;;;;4.23;99.02;103628.97;5056653;28;20499;-41
2022/01/14 03:13:27;;;;;;;44.72;13.05;;;;;;;4.11;98.96;103602.25;5056807;28;20548;-39
2022/01/14 03:15:52;;;;;;;44.65;13.32;;;;;;;4.22;99.11;103629.88;5056366;28;20044;-41
2022/01/14 03:18:28;;;;;;;60.47;13.30;;;;;;;4.20;98.42;103624.00;5056764;28;20036;-41
2022/01/14 03:21:07;;;;;;;93.55;12.63;;;;;;;4.15;98.99;103618.31;5056441;28;20096;-40
2022/01/14 03:23:41;;;;;;;78.88;14.23;;;;;;;4.16;99.47;103609.72;5056752;28;20047;-39
2022/01/14 03:26:06;;;;;;;46.85;13.10;;;;;;;4.11;98.52;103627.84;5056737;28;20071;-40
2022/01/14 03:28:31;;;;;;;51.03;12.45;;;;;;;3.88;98.89;103585.47;5055075;28;20021;-41
2022/01/14 03:30:57;;;;;;;38.53;13.07;;;;;;;4.21;99.09;103631.63;5056655;28;20025;-42
2022/01/14 03:33:22;;;;;;;66.68;14.35;;;;;;;4.22;99.56;103640.94;5056277;28;20553;-39
2022/01/14 03:35:48;;;;;;;72.25;14.23;;;;;;;4.15;99.42;103623.44;5056302;28;20031;-41
2022/01/14 03:38:13;;;;;;;74.97;13.25;;;;;;;4.05;99.27;103617.91;5056260;28;20025;-40
2022/01/14 03:40:38;;;;;;;63.75;13.50;;;;;;;4.01;99.77;103621.53;5056470;28;20029;-42
2022/01/14 03:43:04;;;;;;;43.90;12.88;;;;;;;4.16;99.66;103622.50;5056592;28;20071;-48
2022/01/14 03:45:29;;;;;;;41.38;13.82;;;;;;;4.20;99.43;103612.06;5056898;28;20044;-41
2022/01/14 03:47:54;;;;;;;35.25;12.32;;;;;;;4.12;99.39;103618.47;5056294;28;20460;-42
2022/01/14 03:50:20;;;;;;;50.17;13.10;;;;;;;4.08;99.40;103620.31;5056522;28;20032;-39
2022/01/14 03:52:45;;;;;;;40.60;13.50;;;;;;;4.21;99.16;103612.88;5055821;28;20033;-40
2022/01/14 03:55:11;;;;;;;52.78;12.75;;;;;;;4.06;98.37;103610.19;5055884;28;20559;-40
2022/01/14 03:57:36;;;;;;;41.20;13.23;;;;;;;4.10;98.65;103608.28;5056268;28;20087;-38
2022/01/14 04:00:03;;;;;;;50.28;13.23;;;;;;;4.02;99.02;103597.59;5055529;28;20021;-39
2022/01/14 04:02:28;;;;;;;69.53;13.75;;;;;;;3.92;98.77;103591.28;5055510;28;20044;-41
2022/01/14 04:04:54;;;;;;;50.28;11.65;;;;;;;4.07;98.82;103611.00;5055925;28;20025;-38
2022/01/14 04:07:19;;;;;;;54.97;13.32;;;;;;;3.97;99.14;103604.66;5055821;28;20021;-43
2022/01/14 04:09:44;;;;;;;34.55;11.82;;;;;;;4.07;99.68;103613.56;5055662;28;20028;-41
2022/01/14 04:12:17;;;;;;;37.80;12.73;;;;;;;4.17;98.42;103596.84;5055575;28;20082;-40
2022/01/14 04:17:10;;;;;;;29.17;11.32;;;;;;;4.15;98.51;103619.13;5055740;28;20123;-40
2022/01/14 04:19:36;;;;;;;42.30;11.65;;;;;;;4.17;98.21;103608.81;5055361;28;20048;-38
2022/01/14 04:22:02;;;;;;;62.63;14.18;;;;;;;4.21;98.54;103610.31;5055366;28;20017;-40
2022/01/14 04:24:28;;;;;;;62.17;11.82;;;;;;;4.10;98.67;103610.03;5055384;28;20107;-41
2022/01/14 04:26:53;;;;;;;40.65;12.68;;;;;;;4.25;98.42;103596.47;5055171;28;20123;-40
2022/01/14 04:29:19;;;;;;;58.15;11.25;;;;;;;4.15;98.46;103596.09;5055934;28;20125;-39
2022/01/14 04:31:44;;;;;;;45.45;12.60;;;;;;;4.16;98.82;103581.56;5055473;28;20025;-40
2022/01/14 04:34:09;;;;;;;40.40;12.23;;;;;;;4.22;98.42;103579.50;5055472;28;20077;-40
2022/01/14 04:36:35;;;;;;;45.45;11.98;;;;;;;4.12;98.09;103580.06;5055161;28;20486;-41
2022/01/14 04:39:00;;;;;;;69.53;13.35;;;;;;;4.13;99.10;103576.59;5055339;28;20021;-41
2022/01/14 04:41:25;;;;;;;37.92;12.73;;;;;;;4.12;98.80;103574.94;5054987;28;20032;-40
2022/01/14 04:43:51;;;;;;;44.85;12.35;;;;;;;4.14;98.87;103566.28;5054897;28;20028;-38
2022/01/14 04:49:20;;;;;;;48.08;11.95;;;;;;;4.06;99.32;103564.09;5032708;28;20041;-39
2022/01/14 04:51:45;;;;;;;44.38;12.13;;;;;;;4.13;99.55;103568.91;5032563;28;20468;-40
2022/01/14 04:54:10;;;;;;;53.17;12.18;;;;;;;4.10;99.55;103567.34;5042786;28;20041;-41
2022/01/14 04:56:36;;;;;;;62.53;15.23;;;;;;;4.14;98.98;103560.31;5054340;28;20056;-41
2022/01/14 04:59:01;;;;;;;35.50;12.00;;;;;;;4.10;99.85;103563.94;5054462;28;20032;-39
2022/01/14 05:01:27;;;;;;;50.42;13.63;;;;;;;3.94;99.19;103553.63;5054524;28;20107;-39
2022/01/14 05:03:53;;;;;;;39.03;12.38;;;;;;;4.05;99.43;103564.16;5054325;28;20033;-40
2022/01/14 05:06:18;;;;;;;40.28;12.25;;;;;;;4.22;99.62;103563.34;5054432;28;20047;-38
2022/01/14 05:08:43;;;;;;;37.63;11.98;;;;;;;4.15;98.92;103556.88;5054297;28;20028;-41
2022/01/14 05:13:42;;;;;;;37.72;12.57;;;;;;;4.21;99.03;103551.44;5054793;28;20040;-39
2022/01/14 05:16:08;;;;;;;40.95;12.85;;;;;;;4.24;98.18;103544.44;5054116;28;20049;-41
2022/01/14 05:18:34;;;;;;;45.17;12.45;;;;;;;4.18;98.67;103546.50;5054352;28;20499;-41
2022/01/14 05:20:59;;;;;;;32.90;13.00;;;;;;;4.20;98.30;103547.22;5052618;28;20044;-41
2022/01/14 05:23:25;;;;;;;41.38;12.30;;;;;;;4.21;98.90;103556.56;5054040;28;20113;-40
2022/01/14 05:25:50;;;;;;;38.03;12.13;;;;;;;4.29;98.81;103559.56;5054292;28;20047;-42
2022/01/14 05:28:15;;;;;;;25.25;12.65;;;;;;;4.32;98.47;103556.03;5052559;28;20356;-39
2022/01/14 05:30:41;;;;;;;33.67;11.93;;;;;;;4.32;98.66;103553.47;5054115;28;20025;-39
2022/01/14 05:33:06;;;;;;;40.38;13.15;;;;;;;4.41;97.92;103546.16;5053822;28;20079;-39
2022/01/14 05:35:32;;;;;;;24.73;12.60;;;;;;;4.44;97.92;103557.97;5054170;28;20039;-40
2022/01/14 05:37:57;;;;;;;27.42;12.82;;;;;;;4.40;97.83;103551.31;5053755;28;20024;-38
2022/01/14 05:40:25;;;;;;;32.40;12.65;;;;;;;4.53;97.88;103542.94;5053988;28;20378;-39
2022/01/14 05:42:51;;;;;;;25.55;11.48;;;;;;;4.41;97.37;103538.47;5053584;28;20048;-40
2022/01/14 05:45:16;;;;;;;33.17;12.27;;;;;;;4.30;98.32;103541.56;5053722;28;20360;-38
2022/01/14 05:47:43;;;;;;;31.42;11.68;;;;;;;4.23;98.04;103544.50;5054290;28;20090;-39
2022/01/14 05:50:14;;;;;;;30.35;12.30;;;;;;;4.25;97.96;103533.28;5053523;28;20024;-39
2022/01/14 05:52:40;;;;;;;25.67;11.27;;;;;;;4.21;97.97;103536.91;5052267;28;20033;-39
2022/01/14 05:55:07;;;;;;;34.05;12.63;;;;;;;4.18;97.49;103533.69;5053394;28;20021;-39
2022/01/14 05:57:34;;;;;;;30.40;12.05;;;;;;;4.32;98.37;103548.34;5053362;28;20021;-41
2022/01/14 06:00:01;;;;;;;22.35;11.15;;;;;;;4.33;97.75;103537.19;5053264;28;20025;-38
2022/01/14 06:02:27;;;;;;;24.45;11.32;;;;;;;4.29;97.90;103531.41;5053347;28;20035;-38
2022/01/14 06:04:54;;;;;;;25.80;11.20;;;;;;;4.17;97.52;103529.47;5035530;28;20052;-40
2022/01/14 06:07:20;;;;;;;27.20;12.20;;;;;;;4.11;97.42;103530.59;5053025;28;20499;-40
2022/01/14 06:09:46;;;;;;;22.85;11.13;;;;;;;4.22;98.16;103546.25;5051384;28;20025;-40
2022/01/14 06:12:12;;;;;;;23.88;11.80;;;;;;;4.35;97.93;103553.31;5053365;28;20560;-39
2022/01/14 06:14:38;;;;;;;29.05;12.60;;;;;;;4.40;97.76;103554.75;5051876;28;20021;-41
2022/01/14 06:17:05;;;;;;;32.17;13.25;;;;;;;4.38;97.03;103530.94;5053426;28;20053;-41
2022/01/14 06:19:34;;;;;;;24.45;11.68;;;;;;;4.42;97.52;103545.22;5053513;28;20553;-41
2022/01/14 06:22:00;;;;;;;25.15;11.57;;;;;;;4.41;97.28;103547.88;5052015;28;20033;-40
2022/01/14 06:24:26;;;;;;;27.63;12.25;;;;;;;4.55;96.78;103552.31;5051548;28;20064;-40
2022/01/14 06:26:51;;;;;;;20.88;11.13;;;;;;;4.49;96.89;103541.47;5053595;28;20029;-41
2022/01/14 06:29:17;;;;;;;21.05;11.55;;;;;;;4.49;97.09;103549.16;5051863;28;20086;-39
2022/01/14 06:31:43;;;;;;;24.88;11.95;;;;;;;4.49;96.74;103546.59;5052015;28;20057;-41
2022/01/14 06:34:09;;;;;;;26.70;12.25;;;;;;;4.44;96.99;103542.59;5051865;28;20056;-39
2022/01/14 06:36:34;;;;;;;25.40;12.07;;;;;;;4.45;96.48;103539.94;5051817;28;20090;-40
2022/01/14 06:38:59;;;;;;;27.48;12.23;;;;;;;4.44;96.81;103555.41;5051750;28;20031;-38
2022/01/14 06:41:25;;;;;;;29.65;12.10;;;;;;;4.52;96.91;103548.97;5053179;28;20059;-39
2022/01/14 06:43:50;;;;;;;26.30;12.00;;;;;;;4.45;96.62;103557.88;5052419;28;20013;-40
2022/01/14 06:46:17;;;;;;;28.13;12.52;;;;;;;4.44;97.42;103555.41;5053024;28;20078;-40
2022/01/14 06:48:42;;;;;;;29.42;12.77;;;;;;;4.31;97.15;103547.50;5052875;28;20076;-41
2022/01/14 06:51:13;;;;;;;26.98;12.00;;;;;;;4.28;97.77;103551.03;5053336;28;20052;-40
2022/01/14 06:53:38;;;;;;;24.30;12.57;;;;;;;4.29;97.87;103570.63;5054051;28;20086;-41
2022/01/14 06:56:04;;;;;;;29.15;12.57;;;;;;;4.33;97.13;103540.59;5052675;28;20100;-41
2022/01/14 06:58:29;;;;;;;27.65;12.90;;;;;;;4.32;98.46;103558.59;5052987;28;20112;-42
2022/01/14 07:00:55;;;;;;;25.92;12.20;;;;;;;4.38;97.99;103548.03;5053551;28;20361;-40
2022/01/14 07:03:20;;;;;;;27.98;12.25;;;;;;;4.32;97.46;103546.63;5052699;28;20025;-41
2022/01/14 07:05:45;;;;;;;27.30;11.98;;;;;;;4.40;97.17;103549.63;5051439;28;20104;-40
2022/01/14 07:08:11;;;;;;;26.67;12.70;;;;;;;4.45;97.61;103539.94;5053084;28;20017;-40
2022/01/14 07:10:37;;;;;;;23.10;12.43;;;;;;;4.43;96.34;103523.84;5052902;28;20375;-38
2022/01/14 07:13:04;;;;;;;25.48;11.85;;;;;;;4.33;97.84;103547.44;5053066;28;20078;-38
2022/01/14 07:15:31;;;;;;;23.15;12.43;;;;;;;4.47;97.79;103542.44;5052331;28;20049;-40
2022/01/14 07:17:57;;;;;;;22.85;12.52;;;;;;;4.42;96.99;103563.16;5052946;28;20112;-37
2022/01/14 07:20:22;;;;;;;25.88;12.40;;;;;;;4.47;97.15;103555.25;5052805;28;20053;-38
2022/01/14 07:22:48;;;;;;;29.83;12.85;;;;;;;4.47;97.26;103574.00;5051095;28;20040;-40
2022/01/14 07:25:13;;;;;;;23.83;12.10;;;;;;;4.44;97.22;103563.91;5052516;28;20028;-40
2022/01/14 07:27:39;;;;;;;24.10;12.77;;;;;;;4.47;97.43;103578.28;5052447;28;20424;-40
2022/01/14 07:30:06;;;;;;;26.48;12.07;;;;;;;4.48;97.35;103580.75;5052425;28;20031;-41
2022/01/14 07:32:31;;;;;;;26.95;12.40;;;;;;;4.61;97.54;103578.41;5051042;28;20025;-43
2022/01/14 07:34:57;;;;;;;23.02;12.32;;;;;;;4.68;96.89;103573.78;5051048;28;20454;-38
2022/01/14 07:37:22;;;;;;;22.33;12.15;;;;;;;4.67;96.84;103561.91;5055937;28;20051;-39
2022/01/14 07:39:47;;;;;;;25.58;12.63;;;;;;;4.67;96.19;103564.47;5056390;28;20021;-38
2022/01/14 07:42:13;;;;;;;24.10;12.48;;;;;;;4.71;96.54;103566.75;5056118;28;20468;-40
2022/01/14 07:44:39;;;;;;;24.90;11.82;;;;;;;4.73;96.41;103570.09;5056292;28;20056;-41
2022/01/14 07:47:05;;;;;;;22.45;11.77;;;;;;;4.80;96.09;103575.69;5054574;28;20021;-38
2022/01/14 07:49:31;;;;;;;24.33;11.98;;;;;;;4.90;95.59;103570.94;5055909;28;20111;-40
2022/01/14 07:51:57;;;;;;;28.25;12.35;;;;;;;4.84;95.08;103572.09;5055979;28;20063;-41
2022/01/14 07:54:22;;;;;;;24.88;12.57;;;;;;;4.86;95.68;103577.97;5055771;28;20135;-39
2022/01/14 07:56:51;;;;;;;26.52;11.63;;;;;;;4.88;95.40;103575.31;5055778;28;20074;-40
2022/01/14 07:59:20;;;;;;;22.40;12.07;;;;;;;4.92;95.68;103564.81;5055796;28;20021;-39
2022/01/14 08:01:46;;;;;;;24.70;11.50;;;;;;;4.83;95.07;103557.59;5055662;28;20406;-40
2022/01/14 08:04:16;;;;;;;28.27;12.45;;;;;;;4.94;95.40;103569.84;5053288;28;20112;-41
2022/01/14 08:06:46;;;;;;;27.35;11.90;;;;;;;4.85;95.00;103573.72;5054230;28;20025;-41
2022/01/14 08:09:14;;;;;;;23.00;11.60;;;;;;;4.78;95.73;103580.09;5054449;28;20048;-42
2022/01/14 08:11:39;;;;;;;24.20;11.57;;;;;;;4.86;95.43;103572.00;5052821;28;20017;-40
2022/01/14 08:14:05;;;;;;;28.02;12.45;;;;;;;4.95;95.69;103579.22;5053210;28;20391;-43
2022/01/14 08:16:34;;;;;;;28.00;11.23;;;;;;;4.90;95.37;103566.63;5053681;28;20048;-41
2022/01/14 08:19:00;;;;;;;21.38;11.90;;;;;;;4.95;95.04;103576.66;5054814;28;20036;-40
2022/01/14 08:21:25;;;;;;;21.67;12.13;;;;;;;4.96;95.14;103568.06;5055729;28;20467;-39
2022/01/14 08:23:51;;;;;;;23.10;11.38;;;;;;;4.93;94.82;103571.59;5055497;28;20064;-38
2022/01/14 08:26:16;;;;;;;28.80;11.88;;;;;;;5.00;95.18;103572.09;5055641;28;20025;-42
2022/01/14 08:28:42;;;;;;;20.90;11.35;;;;;;;4.91;94.94;103560.59;5055490;28;20089;-41
2022/01/14 08:31:09;;;;;;;27.92;12.35;;;;;;;5.01;95.50;103576.31;5055672;28;20104;-40
2022/01/14 08:33:34;;;;;;;25.23;11.25;;;;;;;5.09;94.69;103578.47;5055753;28;20471;-42
2022/01/14 08:36:00;;;;;;;23.40;11.48;;;;;;;4.98;94.94;103566.25;5055264;28;20024;-41
2022/01/14 08:38:26;;;;;;;23.10;11.77;;;;;;;5.07;95.08;103578.56;5053775;28;20409;-39
2022/01/14 08:40:52;;;;;;;22.80;11.57;;;;;;;5.09;94.89;103584.44;5055089;28;20106;-43
2022/01/14 08:43:17;;;;;;;24.48;12.15;;;;;;;5.15;94.45;103591.78;5054978;28;20031;-40
2022/01/14 08:45:43;;;;;;;22.02;11.80;;;;;;;5.19;94.79;103593.28;5054860;28;20375;-40
2022/01/14 08:48:09;;;;;;;26.08;12.00;;;;;;;5.28;94.66;103607.34;5054328;28;20031;-42
2022/01/14 08:50:37;;;;;;;20.58;11.52;;;;;;;5.31;94.66;103601.22;5054886;28;20017;-41
2022/01/14 08:53:07;;;;;;;26.10;11.63;;;;;;;5.27;94.43;103600.56;5055424;28;20033;-41
2022/01/14 08:55:34;;;;;;;21.08;11.68;;;;;;;5.35;94.21;103605.25;5053858;28;20035;-41
2022/01/14 08:58:00;;;;;;;23.70;11.73;;;;;;;5.35;93.96;103607.81;5054191;28;20020;-42
2022/01/14 09:00:26;;;;;;;20.48;11.80;;;;;;;5.30;94.23;103608.09;5053828;28;20028;-41
2022/01/14 09:02:52;;;;;;;23.95;11.40;;;;;;;5.24;94.57;103605.84;5053582;28;20021;-40
2022/01/14 09:05:18;;;;;;;22.15;11.18;;;;;;;5.32;93.69;103605.41;5054567;28;20029;-39
2022/01/14 09:07:44;;;;;;;21.90;11.23;;;;;;;5.22;93.71;103605.09;5054833;28;20021;-42
2022/01/14 09:10:10;;;;;;;21.08;11.57;;;;;;;5.19;94.00;103587.31;5054496;28;20021;-40
2022/01/14 09:12:36;;;;;;;22.45;11.40;;;;;;;5.33;94.43;103595.09;5054435;28;20147;-41
2022/01/14 09:15:02;;;;;;;25.35;11.50;;;;;;;5.30;93.97;103590.13;5054416;28;20052;-40
2022/01/14 09:17:28;;;;;;;20.30;11.50;;;;;;;5.38;93.31;103592.25;5054173;28;20028;-41
2022/01/14 09:19:54;;;;;;;22.20;11.95;;;;;;;5.49;92.78;103584.00;5054106;28;20109;-41
2022/01/14 09:22:19;;;;;;;20.50;11.90;;;;;;;5.42;93.12;103584.31;5054413;28;20096;-42
2022/01/14 09:24:46;;;;;;;22.98;11.63;;;;;;;5.53;92.92;103585.50;5054299;28;20024;-38
2022/01/14 09:27:14;;;;;;;21.17;12.10;;;;;;;5.44;93.15;103594.53;5053400;28;20017;-39
2022/01/14 09:29:40;;;;;;;23.20;11.50;;;;;;;5.65;92.35;103588.19;5051967;28;20017;-42
2022/01/14 09:32:06;;;;;;;20.73;11.40;;;;;;;5.60;92.04;103585.03;5053151;28;20021;-42
2022/01/14 09:34:32;;;;;;;19.63;11.25;;;;;;;5.56;92.07;103587.88;5053738;28;20380;-42
2022/01/14 09:36:58;;;;;;;23.27;11.13;;;;;;;5.53;93.01;103578.63;5053665;28;20029;-41
2022/01/14 09:39:23;;;;;;;22.52;11.50;;;;;;;5.61;93.06;103583.28;5053886;28;20027;-40
2022/01/14 09:41:51;;;;;;;20.52;11.02;;;;;;;5.62;92.05;103588.34;5053833;28;20050;-42
2022/01/14 09:44:18;;;;;;;24.13;11.88;;;;;;;5.73;92.00;103595.47;5053816;28;20027;-41
2022/01/14 09:46:47;;;;;;;22.65;11.73;;;;;;;5.84;91.18;103585.41;5053857;28;20590;-42
2022/01/14 09:49:14;;;;;;;24.23;11.38;;;;;;;5.83;91.31;103585.50;5053325;28;20032;-42
2022/01/14 09:51:40;;;;;;;24.25;12.60;;;;;;;5.73;91.75;103597.22;5054028;28;20028;-39
2022/01/14 09:54:06;;;;;;;23.83;11.65;;;;;;;5.87;91.04;103595.50;5054036;28;20025;-39
2022/01/14 09:56:32;;;;;;;20.75;11.68;;;;;;;5.81;90.84;103595.88;5053870;28;20539;-43
2022/01/14 09:58:58;;;;;;;25.48;12.32;;;;;;;5.86;91.21;103595.59;5053313;28;20025;-41
2022/01/14 10:01:24;;;;;;;19.23;11.20;;;;;;;5.83;91.21;103604.28;5053798;28;20417;-45
2022/01/14 10:03:57;;;;;;;21.95;11.30;;;;;;;5.85;91.67;103599.91;5053500;28;20029;-41
2022/01/14 10:06:35;;;;;;;24.08;12.35;;;;;;;5.96;91.51;103608.78;5052263;28;20036;-42
2022/01/14 10:09:04;;;;;;;24.65;12.45;;;;;;;5.97;91.18;103597.59;5053581;28;20116;-39
2022/01/14 10:11:29;;;;;;;19.75;11.43;;;;;;;6.03;90.61;103604.94;5052565;28;20092;-43
2022/01/14 10:14:04;;;;;;;23.38;12.23;;;;;;;5.93;91.30;103596.06;5053103;28;20116;-41
2022/01/14 10:16:29;;;;;;;20.23;12.15;;;;;;;6.02;90.84;103598.97;5053139;28;20045;-41
2022/01/14 10:18:56;;;;;;;22.48;12.00;;;;;;;6.04;90.83;103601.44;5052787;28;20452;-40
2022/01/14 10:21:30;;;;;;;25.45;11.75;;;;;;;6.04;90.49;103593.72;5053335;28;20241;-43
2022/01/14 10:23:56;;;;;;;25.25;11.75;;;;;;;6.05;90.62;103573.13;5053798;28;20024;-42
2022/01/14 10:26:21;;;;;;;22.75;11.95;;;;;;;6.06;90.42;103585.03;5053147;28;20191;-41
2022/01/14 10:29:01;;;;;;;32.13;11.93;;;;;;;6.19;89.44;103592.88;5053095;28;20020;-39
2022/01/14 10:31:34;;;;;;;21.70;12.15;;;;;;;5.95;90.64;103561.72;5053105;28;20047;-42
2022/01/14 10:34:10;;;;;;;25.00;11.80;;;;;;;6.28;89.81;103600.03;5053147;28;20127;-41
2022/01/14 10:36:35;;;;;;;26.48;12.68;;;;;;;6.39;89.08;103606.25;5052991;28;20494;-43
2022/01/14 10:39:17;;;;;;;28.30;13.02;;;;;;;6.28;90.07;103614.63;5052924;28;20099;-39
2022/01/14 10:41:42;;;;;;;24.05;12.80;;;;;;;6.41;89.74;103612.97;5053029;28;20040;-43
2022/01/14 10:44:32;;;;;;;25.65;13.00;;;;;;;6.28;89.99;103614.63;5053454;28;20065;-41
2022/01/14 10:47:25;;;;;;;31.45;12.38;;;;;;;6.36;89.63;103609.00;5053169;28;20452;-40
2022/01/14 10:49:56;;;;;;;26.30;13.35;;;;;;;6.12;89.66;103573.59;5052185;28;20448;-41
2022/01/14 10:52:24;;;;;;;26.17;11.57;;;;;;;6.38;89.44;103605.44;5052874;28;20113;-43
2022/01/14 10:54:53;;;;;;;25.75;12.55;;;;;;;6.46;89.46;103607.56;5052245;28;20025;-40
2022/01/14 10:57:24;;;;;;;27.10;12.63;;;;;;;6.49;89.96;103602.25;5052833;28;20059;-43
2022/01/14 10:59:52;;;;;;;26.85;12.43;;;;;;;6.64;89.31;103596.19;5053347;28;20100;-42
2022/01/14 11:02:37;;;;;;;23.23;12.95;;;;;;;6.62;88.31;103600.63;5052875;28;20025;-40
2022/01/14 11:05:07;;;;;;;23.95;11.93;;;;;;;6.64;88.81;103600.50;5052686;28;20442;-42
2022/01/14 11:07:32;;;;;;;25.27;13.02;;;;;;;6.64;88.65;103601.31;5052595;28;20029;-41
2022/01/14 11:09:59;;;;;;;22.45;11.98;;;;;;;6.59;89.07;103594.81;5054140;28;20086;-42
2022/01/14 11:12:25;;;;;;;22.35;12.13;;;;;;;6.63;89.27;103591.97;5056331;28;20105;-41
2022/01/14 11:14:51;;;;;;;23.38;12.18;;;;;;;6.77;89.67;103586.84;5055963;28;20017;-40
2022/01/14 11:17:16;;;;;;;27.50;13.18;;;;;;;6.87;88.69;103587.09;5056145;28;20033;-42
2022/01/14 11:19:45;;;;;;;25.70;13.07;;;;;;;6.75;89.15;103580.13;5056927;28;20108;-42
2022/01/14 11:24:55;;;;;;;26.15;13.52;;;;;;;6.77;88.65;103581.69;5057151;28;20039;-40
2022/01/14 11:27:22;;;;;;;23.95;12.50;;;;;;;6.75;89.80;103590.41;5055594;28;20025;-43
2022/01/14 11:29:48;;;;;;;25.38;12.80;;;;;;;6.91;90.26;103585.19;5056153;28;20050;-41
2022/01/14 11:32:14;;;;;;;24.48;12.95;;;;;;;6.93;89.09;103591.88;5054983;28;20025;-41
2022/01/14 11:34:42;;;;;;;21.65;13.20;;;;;;;6.91;88.81;103592.88;5055695;28;20051;-41
2022/01/14 11:37:10;;;;;;;25.05;11.98;;;;;;;6.91;88.44;103587.75;5056048;28;20060;-40
2022/01/14 11:39:39;;;;;;;26.25;12.65;;;;;;;6.98;87.89;103597.53;5056337;28;20487;-41
2022/01/14 11:42:12;;;;;;;24.48;12.40;;;;;;;7.12;88.13;103593.31;5056136;28;20033;-41
2022/01/14 11:44:41;;;;;;;21.85;12.77;;;;;;;7.01;88.01;103593.97;5056344;28;20044;-42
2022/01/14 11:47:06;;;;;;;28.40;12.73;;;;;;;6.83;88.34;103589.97;5056184;28;20021;-40
2022/01/14 11:49:37;;;;;;;30.25;12.85;;;;;;;7.04;88.76;103586.06;5056624;28;20051;-41